My Meet Scores
Ainslee Olds, St. Charles Gymnastics Academy - MyMeetScores.com
Top100 | Top Teams | Upcoming Meets | Completed Meets | Latest | Add Scores | Help| Support | Bookmark and Share

Ainslee Olds, St. Charles Gymnastics Academy
Personal Bests
LevelVault BarsBeamFloorAA
38.8508.250 8.2259.00033.825
48.5759.800 9.3259.25036.600
68.9259.150 8.9509.32535.900
Meet Scores
Date Meet Team Session Level Division Vault Bars Beam Floor AA
2020-02-28 MEGA Spring Invite 2020 St. Charles Gymnastics Academy 2 6 Child 8.375 15 8.375 19 8.925 17 8.400 18 34.075 17
2020-02-21 Great Western Invitational - Women's St. Charles Gymnastics Academy 11 6 Buckaroo 8.825 20 8.800 18 8.800 17T 8.850 18 35.275 19
2020-02-07 SCGA Classic St. Charles Gymnastics Academy 2 6 child 8.925 3 9.050 4 8.125 6 9.225 5 35.325 5
2020-01-24 Sand Dollar Invitational 2020 St. Charles Gymnastics Academy D06 6 Jr A 8.150 17T 8.600 14 8.500 15 8.950 15 34.200 17
2020-01-10 St Jude Benefit Meet St. Charles Gymnastics Academy 1B 6 Jr A 8.150 19 9.150 11T 7.550 20 9.325 6 34.175 16
2019-12-13 2019 St Nick St. Charles Gymnastics Academy 4 6 JrA 8.650 6 9.150 5 8.950 7 9.150 10T 35.900 8
2019-03-22 Illinois Gymnastics State Championships St. Charles Gymnastics Academy 6 4 YT B 8.250 27 9.775 1T 9.250 11 9.250 8T 36.525 11
2019-02-08 IGI Chicago Style 2019 St. Charles Gymnastics Academy 38 4 231 Lakeshore L4 B 8.450 15 9.800 1 9.000 12 9.075 4 36.325 7
2019-01-25 King Arthur Invitational St. Charles Gymnastics Academy 9 4 JR B 8.575 9 9.675 2T 9.150 4 8.800 4 36.200 4
2019-01-11 St Jude Benefit Meet St. Charles Gymnastics Academy 7A 4 Jr C 8.550 9T 9.475 1 9.325 3 9.250 2T 36.600 3
2018-12-07 St. Nick Invite 2018 St. Charles Gymnastics Academy 5A 4 JrB 8.550 13 9.550 2T 9.000 8 9.100 6T 36.200 4
2018-03-08 Level 4 & 5 State St. Charles Gymnastics Academy All 4 Ch B 8.200 23T 8.050 25 8.700 23T 8.650 21 33.600 25
2018-02-23 Kinetic Classic St. Charles Gymnastics Academy 7 4 Younger 7.750 79T 8.225 69T 8.150 87 8.625 65T 32.750 81
2018-02-16 Big Classic St. Charles Gymnastics Academy 7B 4 Child A 8.125 11 9.000 8 9.125 10 8.975 10 35.225 9
2018-01-26 King Arthur Invitational St. Charles Gymnastics Academy 6 4 JRA 8.525 16 8.750 8T 9.200 5T 8.700 7 35.175 7
2018-01-12 St Jude Benefit Meet St. Charles Gymnastics Academy 2A 4 JrA 7.550 17 9.100 9 8.550 15T 8.425 12 33.625 16
2017-12-14 2017 Women's Hawaiian Pineapple Classic St. Charles Gymnastics Academy 6A 4 Ages8U 7.100 15 7.600 13 7.850 11 8.250 8T 30.800 12
2017-12-01 Ultimate Wish Classic St. Charles Gymnastics Academy 6 4 Jr A 7.900 8 7.800 9T 8.750 8 7.900 11 32.350 9T
2017-11-17 SCGA Classic St. Charles Gymnastics Academy 2 4 ChildA 8.150 13 8.050 8 8.000 14 7.700 14 31.900 12
2017-02-24 Kinetic Classic St. Charles Gymnastics Academy 4,5,6,7 3 All Ages 8.750 98T 7.850 106 8.225 97 9.000 50T 33.825 100
2017-01-20 2017 Bravo Classic St. Charles Gymnastics Academy 12B 3 6-7yrs 8.850 18 8.250 11 7.550 19 8.700 10 33.350 15
2016-12-15 2016 Hawaiian Pineapple Sanction St. Charles Gymnastics Academy 5B 3 Ages 7U 8.700 5 6.450 8 8.150 7 8.250 6 31.550 6
Get your scores on
a t-shirt, pin, or hoodie

www.lazysuits.com